Time;durP1;ratioP1;P1;durP2;ratioP2;P2;SDS_P1;SDS_P2;PMS_P1;PMS_P2;Temp;Humidity;BMP_temperature;BMP_pressure;BME280_temperature;BME280_humidity;BME280_pressure;Samples;Min_cycle;Max_cycle;Signal;HPM_P1;HPM_P2
2023/12/18 00:00:48;;;;;;;;;;;;;;;;;;10304524;28;19982;-85
2023/12/18 00:05:48;;;;;;;;;;;;;;;;;;10312014;28;19937;-84
2023/12/18 00:10:50;;;;;;;;;;;;;;;;;;10302861;28;19921;-83
2023/12/18 00:15:50;;;;;;;;;;;;;;;;;;10301074;28;21100;-80
2023/12/18 00:20:52;;;;;;;;;;;;;;;;;;10279865;28;19962;-80
2023/12/18 00:25:53;;;;;;;;;;;;;;;;;;10292722;28;19929;-81
2023/12/18 00:30:53;;;;;;;;;;;;;;;;;;10292901;28;19976;-80
2023/12/18 00:35:53;;;;;;;;;;;;;;;;;;10295798;28;19926;-80
2023/12/18 00:40:53;;;;;;;;;;;;;;;;;;10300525;28;19980;-81
2023/12/18 00:45:55;;;;;;;;;;;;;;;;;;10348566;28;20030;-80
2023/12/18 00:50:57;;;;;;;;;;;;;;;;;;10325003;28;19984;-81
2023/12/18 00:55:58;;;;;;;;;;;;;;;;;;10350893;28;19918;-82
2023/12/18 01:00:58;;;;;;;;;;;;;;;;;;10317153;28;20390;-83
2023/12/18 01:05:59;;;;;;;;;;;;;;;;;;10309284;28;19980;-83
2023/12/18 01:10:59;;;;;;;;;;;;;;;;;;10274868;28;19921;-84
2023/12/18 01:15:59;;;;;;;;;;;;;;;;;;10359401;28;19916;-85
2023/12/18 01:21:03;;;;;;;;;;;;;;;;;;10346172;28;19981;-88
2023/12/18 01:26:03;;;;;;;;;;;;;;;;;;10340572;28;19971;-88
2023/12/18 01:31:04;;;;;;;;;;;;;;;;;;10377722;28;19926;-90
2023/12/18 01:36:05;;;;;;;;;;;;;;;;;;10361479;28;19917;-87
2023/12/18 01:41:05;;;;;;;;;;;;;;;;;;10344154;28;19917;-83
2023/12/18 01:46:05;;;;;;;;;;;;;;;;;;10361838;28;19926;-86
2023/12/18 01:51:06;;;;;;;;;;;;;;;;;;10357942;28;19908;-84
2023/12/18 01:56:07;;;;;;;;;;;;;;;;;;10377702;28;19914;-82
2023/12/18 02:01:08;;;;;;;;;;;;;;;;;;10388948;28;19941;-83
2023/12/18 02:06:13;;;;;;;;;;;;;;;;;;10347948;28;19926;-82
2023/12/18 02:11:15;;;;;;;;;;;;;;;;;;10304327;28;19947;-82
2023/12/18 02:16:16;;;;;;;;;;;;;;;;;;10279057;28;20370;-83
2023/12/18 02:21:16;;;;;;;;;;;;;;;;;;10283958;28;19921;-81
2023/12/18 02:26:17;;;;;;;;;;;;;;;;;;10310792;28;19940;-82
2023/12/18 02:31:18;;;;;;;;;;;;;;;;;;10315135;28;19922;-81
2023/12/18 02:36:18;;;;;;;;;;;;;;;;;;10294444;28;19918;-82
2023/12/18 02:41:18;;;;;;;;;;;;;;;;;;10258105;28;19919;-83
2023/12/18 02:46:20;;;;;;;;;;;;;;;;;;10289224;28;19978;-84
2023/12/18 02:51:20;;;;;;;;;;;;;;;;;;10280542;28;19922;-81
2023/12/18 02:56:23;;;;;;;;;;;;;;;;;;10308919;28;20393;-82
2023/12/18 03:01:23;;;;;;;;;;;;;;;;;;10306189;28;19962;-80
2023/12/18 03:06:24;;;;;;;;;;;;;;;;;;10344899;28;19945;-82
2023/12/18 03:11:24;;;;;;;;;;;;;;;;;;10339095;28;19914;-83
2023/12/18 03:16:24;;;;;;;;;;;;;;;;;;10312139;28;19926;-88
2023/12/18 03:21:25;;;;;;;;;;;;;;;;;;10352960;28;19922;-84
2023/12/18 03:26:25;;;;;;;;;;;;;;;;;;10347492;28;19965;-85
2023/12/18 03:31:28;;;;;;;;;;;;;;;;;;10356459;28;19928;-86
2023/12/18 03:36:28;;;;;;;;;;;;;;;;;;10312559;28;20405;-87
2023/12/18 03:41:29;;;;;;;;;;;;;;;;;;10286503;28;19918;-85
2023/12/18 03:46:30;;;;;;;;;;;;;;;;;;10267751;28;20013;-85
2023/12/18 03:51:30;;;;;;;;;;;;;;;;;;10289793;28;19961;-87
2023/12/18 03:56:30;;;;;;;;;;;;;;;;;;10299827;28;19980;-84
2023/12/18 04:01:31;;;;;;;;;;;;;;;;;;10244331;28;19917;-88
2023/12/18 04:06:32;;;;;;;;;;;;;;;;;;10270547;28;19930;-86
2023/12/18 04:11:33;;;;;;;;;;;;;;;;;;10224428;28;19968;-85
2023/12/18 04:16:35;;;;;;;;;;;;;;;;;;10232813;28;19933;-85
2023/12/18 04:21:36;;;;;;;;;;;;;;;;;;10222521;28;20036;-89
2023/12/18 04:26:41;;;;;;;;;;;;;;;;;;10300503;28;19929;-88
2023/12/18 04:31:41;;;;;;;;;;;;;;;;;;10322689;28;19932;-88
2023/12/18 04:36:43;;;;;;;;;;;;;;;;;;10324030;28;19918;-88
2023/12/18 04:41:44;;;;;;;;;;;;;;;;;;10244569;28;19930;-88
2023/12/18 04:46:47;;;;;;;;;;;;;;;;;;10285030;28;19929;-88
2023/12/18 04:51:47;;;;;;;;;;;;;;;;;;10248681;28;19934;-88
2023/12/18 04:56:47;;;;;;;;;;;;;;;;;;10256277;28;19922;-83
2023/12/18 05:01:49;;;;;;;;;;;;;;;;;;10265647;28;19929;-87
2023/12/18 05:06:49;;;;;;;;;;;;;;;;;;10229250;28;20028;-82
2023/12/18 05:11:49;;;;;;;;;;;;;;;;;;10265360;28;19937;-84
2023/12/18 05:16:51;;;;;;;;;;;;;;;;;;10252972;28;19926;-86
2023/12/18 05:21:53;;;;;;;;;;;;;;;;;;10256068;28;19922;-86
2023/12/18 05:26:53;;;;;;;;;;;;;;;;;;10266428;28;19930;-87
2023/12/18 05:37:14;;;;;;;;;;;;;;;;;;10330884;28;19930;-87
2023/12/18 05:42:17;;;;;;;;;;;;;;;;;;10300706;28;20040;-87
2023/12/18 05:47:19;;;;;;;;;;;;;;;;;;10322718;28;19982;-88
2023/12/18 05:52:27;;;;;;;;;;;;;;;;;;10309515;28;19949;-87
2023/12/18 05:57:48;;;;;;;;;;;;;;;;;;10272994;28;19922;-86
2023/12/18 06:02:53;;;;;;;;;;;;;;;;;;10260706;28;19949;-89
2023/12/18 06:08:04;;;;;;;;;;;;;;;;;;10334669;28;20041;-89
2023/12/18 06:13:07;;;;;;;;;;;;;;;;;;10410650;23;19934;-87
2023/12/18 06:18:08;;;;;;;;;;;;;;;;;;10334441;28;20024;-88
2023/12/18 06:28:10;;;;;;;;;;;;;;;;;;10312222;28;20045;-86
2023/12/18 06:33:12;;;;;;;;;;;;;;;;;;10300241;28;19922;-86
2023/12/18 06:38:12;;;;;;;;;;;;;;;;;;10283969;28;19918;-88
2023/12/18 06:43:13;;;;;;;;;;;;;;;;;;10335562;28;19926;-87
2023/12/18 06:48:13;;;;;;;;;;;;;;;;;;10351134;28;19985;-85
2023/12/18 06:53:14;;;;;;;;;;;;;;;;;;10343344;28;19906;-85
2023/12/18 06:58:18;;;;;;;;;;;;;;;;;;10351657;28;19942;-82
2023/12/18 07:03:19;;;;;;;;;;;;;;;;;;10275709;28;19926;-82
2023/12/18 07:08:20;;;;;;;;;;;;;;;;;;10252141;28;19957;-81
2023/12/18 07:13:20;;;;;;;;;;;;;;;;;;10251674;28;19929;-84
2023/12/18 07:18:21;;;;;;;;;;;;;;;;;;10249888;28;20692;-85
2023/12/18 07:23:23;;;;;;;;;;;;;;;;;;10216969;28;19930;-85
2023/12/18 07:28:23;;;;;;;;;;;;;;;;;;10289053;28;19957;-86
2023/12/18 07:33:25;;;;;;;;;;;;;;;;;;10288005;28;19934;-85
2023/12/18 07:38:26;;;;;;;;;;;;;;;;;;10300053;28;19933;-86
2023/12/18 07:43:27;;;;;;;;;;;;;;;;;;10310391;28;20296;-84
2023/12/18 07:48:28;;;;;;;;;;;;;;;;;;10300213;28;19926;-86
2023/12/18 07:53:29;;;;;;;;;;;;;;;;;;10281192;28;19922;-87
2023/12/18 07:58:33;;;;;;;;;;;;;;;;;;10306166;28;20670;-84
2023/12/18 08:03:33;;;;;;;;;;;;;;;;;;10299996;28;19934;-84
2023/12/18 08:08:34;;;;;;;;;;;;;;;;;;10280346;28;19922;-83
2023/12/18 08:13:38;;;;;;;;;;;;;;;;;;10294701;28;19922;-85
2023/12/18 08:18:42;;;;;;;;;;;;;;;;;;10295478;28;19958;-84
2023/12/18 08:23:42;;;;;;;;;;;;;;;;;;10324922;28;19934;-86
2023/12/18 08:28:43;;;;;;;;;;;;;;;;;;10317264;28;20196;-86
2023/12/18 08:33:43;;;;;;;;;;;;;;;;;;10253457;28;20413;-87
2023/12/18 08:38:43;;;;;;;;;;;;;;;;;;10260362;28;20052;-85
2023/12/18 08:43:43;;;;;;;;;;;;;;;;;;10293575;28;20016;-87
2023/12/18 08:48:44;;;;;;;;;;;;;;;;;;10306325;28;19933;-85
2023/12/18 08:53:44;;;;;;;;;;;;;;;;;;10273008;28;21193;-84
2023/12/18 08:58:44;;;;;;;;;;;;;;;;;;10302645;28;19926;-80
2023/12/18 09:03:44;;;;;;;;;;;;;;;;;;10263187;28;19937;-80
2023/12/18 09:08:44;;;;;;;;;;;;;;;;;;10303070;28;19925;-83
2023/12/18 09:13:45;;;;;;;;;;;;;;;;;;10296514;28;19932;-81
2023/12/18 09:18:46;;;;;;;;;;;;;;;;;;10252094;28;20439;-80
2023/12/18 09:23:47;;;;;;;;;;;;;;;;;;10303813;28;19937;-82
2023/12/18 09:28:47;;;;;;;;;;;;;;;;;;10252973;28;19952;-82
2023/12/18 09:33:50;;;;;;;;;;;;;;;;;;10289493;28;19922;-82
2023/12/18 09:38:50;;;;;;;;;;;;;;;;;;10302203;28;19929;-78
2023/12/18 09:43:53;;;;;;;;;;;;;;;;;;10309095;28;21089;-86
2023/12/18 09:48:55;;;;;;;;;;;;;;;;;;10280519;28;19948;-81
2023/12/18 09:53:55;;;;;;;;;;;;;;;;;;10287070;28;19928;-83
2023/12/18 09:58:56;;;;;;;;;;;;;;;;;;10318121;28;19935;-83
2023/12/18 10:03:56;;;;;;;;;;;;;;;;;;10284870;28;19933;-87
2023/12/18 10:08:57;;;;;;;;;;;;;;;;;;10295857;28;19929;-81
2023/12/18 10:13:58;;;;;;;;;;;;;;;;;;10268313;28;19929;-84
2023/12/18 10:18:59;;;;;;;;;;;;;;;;;;10332502;28;19972;-81
2023/12/18 10:23:59;;;;;;;;;;;;;;;;;;10311428;28;19914;-80
2023/12/18 10:29:00;;;;;;;;;;;;;;;;;;10347263;28;20430;-75
2023/12/18 10:34:05;;;;;;;;;;;;;;;;;;10312178;28;19932;-74
2023/12/18 10:39:09;;;;;;;;;;;;;;;;;;10295795;28;19933;-74
2023/12/18 10:44:09;;;;;;;;;;;;;;;;;;10295735;28;19925;-74
2023/12/18 10:49:10;;;;;;;;;;;;;;;;;;10294313;28;20005;-74
2023/12/18 10:54:10;;;;;;;;;;;;;;;;;;10301073;28;19922;-75
2023/12/18 10:59:10;;;;;;;;;;;;;;;;;;10291294;28;20336;-75
2023/12/18 11:04:13;;;;;;;;;;;;;;;;;;10298252;28;19937;-80
2023/12/18 11:09:14;;;;;;;;;;;;;;;;;;10304711;28;19929;-86
2023/12/18 11:14:14;;;;;;;;;;;;;;;;;;10284543;28;19937;-81
2023/12/18 11:19:17;;;;;;;;;;;;;;;;;;10261107;28;20450;-80
2023/12/18 11:24:24;;;;;;;;;;;;;;;;;;10276011;28;19972;-82
2023/12/18 11:29:25;;;;;;;;;;;;;;;;;;10259416;28;19925;-81
2023/12/18 11:34:26;;;;;;;;;;;;;;;;;;10281345;28;19934;-85
2023/12/18 11:39:32;;;;;;;;;;;;;;;;;;10281583;28;19922;-87
2023/12/18 11:44:33;;;;;;;;;;;;;;;;;;10353232;28;19932;-87
2023/12/18 11:49:36;;;;;;;;;;;;;;;;;;10347135;28;19906;-86
2023/12/18 11:54:36;;;;;;;;;;;;;;;;;;10378866;28;19953;-88
2023/12/18 11:59:36;;;;;;;;;;;;;;;;;;10357121;28;19905;-82
2023/12/18 12:04:37;;;;;;;;;;;;;;;;;;10388406;28;19939;-80
2023/12/18 12:09:37;;;;;;;;;;;;;;;;;;10301467;28;19922;-82
2023/12/18 12:14:38;;;;;;;;;;;;;;;;;;10311070;28;19922;-80
2023/12/18 12:19:39;;;;;;;;;;;;;;;;;;10281177;28;19926;-81
2023/12/18 12:24:39;;;;;;;;;;;;;;;;;;10281555;28;19930;-81
2023/12/18 12:29:40;;;;;;;;;;;;;;;;;;10283798;28;19934;-80
2023/12/18 12:34:40;;;;;;;;;;;;;;;;;;10282705;28;19977;-80
2023/12/18 12:39:41;;;;;;;;;;;;;;;;;;10309617;28;20017;-85
2023/12/18 12:44:44;;;;;;;;;;;;;;;;;;10314750;28;20853;-85
2023/12/18 12:49:47;;;;;;;;;;;;;;;;;;10292798;28;19954;-80
2023/12/18 12:54:47;;;;;;;;;;;;;;;;;;10284055;28;19926;-82
2023/12/18 12:59:50;;;;;;;;;;;;;;;;;;10281414;28;20427;-80
2023/12/18 13:04:52;;;;;;;;;;;;;;;;;;10290538;28;19940;-81
2023/12/18 13:09:55;;;;;;;;;;;;;;;;;;10314087;28;20011;-87
2023/12/18 13:14:58;;;;;;;;;;;;;;;;;;10320463;28;20259;-81
2023/12/18 13:19:58;;;;;;;;;;;;;;;;;;10279138;28;19933;-78
2023/12/18 13:25:08;;;;;;;;;;;;;;;;;;10259199;28;19953;-83
2023/12/18 13:30:10;;;;;;;;;;;;;;;;;;10287840;28;19905;-81
2023/12/18 13:35:11;;;;;;;;;;;;;;;;;;10285723;28;19924;-80
2023/12/18 13:40:12;;;;;;;;;;;;;;;;;;10319487;28;19930;-80
2023/12/18 13:45:14;;;;;;;;;;;;;;;;;;10317173;28;19926;-83
2023/12/18 13:50:17;;;;;;;;;;;;;;;;;;10283261;28;19922;-78
2023/12/18 13:55:18;;;;;;;;;;;;;;;;;;10279912;28;19947;-80
2023/12/18 14:00:19;;;;;;;;;;;;;;;;;;10312221;28;19925;-80
2023/12/18 14:05:20;;;;;;;;;;;;;;;;;;10312578;28;20388;-82
2023/12/18 14:10:22;;;;;;;;;;;;;;;;;;10287165;28;19954;-79
2023/12/18 14:15:22;;;;;;;;;;;;;;;;;;10291797;28;20023;-83
2023/12/18 14:20:23;;;;;;;;;;;;;;;;;;10276341;28;19965;-81
2023/12/18 14:25:23;;;;;;;;;;;;;;;;;;10273074;28;20486;-84
2023/12/18 14:30:23;;;;;;;;;;;;;;;;;;10285656;28;20736;-83
2023/12/18 14:35:24;;;;;;;;;;;;;;;;;;10262656;28;19930;-83
2023/12/18 14:40:27;;;;;;;;;;;;;;;;;;10273567;28;19925;-82
2023/12/18 14:45:29;;;;;;;;;;;;;;;;;;10294991;28;20759;-83
2023/12/18 14:50:32;;;;;;;;;;;;;;;;;;10248832;28;20381;-81
2023/12/18 14:55:32;;;;;;;;;;;;;;;;;;10305742;28;19906;-83
2023/12/18 15:00:32;;;;;;;;;;;;;;;;;;10318545;28;19922;-84
2023/12/18 15:05:35;;;;;;;;;;;;;;;;;;10280349;28;19930;-80
2023/12/18 15:10:44;;;;;;;;;;;;;;;;;;10252422;28;19965;-81
2023/12/18 15:15:45;;;;;;;;;;;;;;;;;;10225842;28;19974;-82
2023/12/18 15:20:45;;;;;;;;;;;;;;;;;;10232027;28;19937;-82
2023/12/18 15:25:46;;;;;;;;;;;;;;;;;;10250542;28;19953;-80
2023/12/18 15:30:47;;;;;;;;;;;;;;;;;;10272822;28;19950;-86
2023/12/18 15:35:51;;;;;;;;;;;;;;;;;;10283125;28;19919;-81
2023/12/18 15:40:52;;;;;;;;;;;;;;;;;;10299363;28;19926;-90
2023/12/18 15:45:53;;;;;;;;;;;;;;;;;;10272925;28;19934;-84
2023/12/18 15:50:53;;;;;;;;;;;;;;;;;;10302900;28;19972;-81
2023/12/18 15:55:53;;;;;;;;;;;;;;;;;;10291794;28;19926;-81
2023/12/18 16:00:55;;;;;;;;;;;;;;;;;;10290688;28;20663;-82
2023/12/18 16:05:56;;;;;;;;;;;;;;;;;;10267041;28;20450;-83
2023/12/18 16:10:57;;;;;;;;;;;;;;;;;;10323516;28;19944;-81
2023/12/18 16:15:58;;;;;;;;;;;;;;;;;;10299189;28;19926;-80
2023/12/18 16:20:58;;;;;;;;;;;;;;;;;;10238278;28;20011;-87
2023/12/18 16:25:59;;;;;;;;;;;;;;;;;;10364982;28;19917;-85
2023/12/18 16:31:00;;;;;;;;;;;;;;;;;;10344619;28;19914;-82
2023/12/18 16:36:00;;;;;;;;;;;;;;;;;;10339196;28;19906;-87
2023/12/18 16:41:02;;;;;;;;;;;;;;;;;;10346763;28;19979;-85
2023/12/18 16:46:04;;;;;;;;;;;;;;;;;;10314339;28;19957;-83
2023/12/18 16:51:26;;;;;;;;;;;;;;;;;;10249082;28;19939;-82
2023/12/18 16:56:26;;;;;;;;;;;;;;;;;;10234771;28;20426;-83
2023/12/18 17:01:31;;;;;;;;;;;;;;;;;;10256648;28;19973;-80
2023/12/18 17:06:32;;;;;;;;;;;;;;;;;;10277829;28;19930;-86
2023/12/18 17:11:32;;;;;;;;;;;;;;;;;;10259777;28;19922;-84
2023/12/18 17:16:34;;;;;;;;;;;;;;;;;;10319607;28;19985;-84
2023/12/18 17:22:21;;;;;;;;;;;;;;;;;;10316562;28;19931;-86
2023/12/18 17:27:22;;;;;;;;;;;;;;;;;;10256904;28;20318;-82
2023/12/18 17:32:24;;;;;;;;;;;;;;;;;;10311901;28;20020;-84
2023/12/18 17:37:25;;;;;;;;;;;;;;;;;;10298705;28;19926;-84
2023/12/18 17:42:33;;;;;;;;;;;;;;;;;;10312032;28;20417;-82
2023/12/18 17:47:33;;;;;;;;;;;;;;;;;;10322736;28;19930;-82
2023/12/18 17:52:34;;;;;;;;;;;;;;;;;;10272454;28;19975;-83
2023/12/18 17:57:34;;;;;;;;;;;;;;;;;;10354673;28;19917;-82
2023/12/18 18:02:34;;;;;;;;;;;;;;;;;;10306349;28;19918;-83
2023/12/18 18:07:35;;;;;;;;;;;;;;;;;;10298626;28;20645;-85
2023/12/18 18:12:36;;;;;;;;;;;;;;;;;;10294482;28;19922;-85
2023/12/18 18:17:46;;;;;;;;;;;;;;;;;;10317206;28;19993;-86
2023/12/18 18:22:55;;;;;;;;;;;;;;;;;;10287047;28;19934;-83
2023/12/18 18:27:55;;;;;;;;;;;;;;;;;;10297763;28;19930;-85
2023/12/18 18:32:55;;;;;;;;;;;;;;;;;;10290651;28;19922;-82
2023/12/18 18:37:55;;;;;;;;;;;;;;;;;;10285072;28;19922;-82
2023/12/18 18:42:56;;;;;;;;;;;;;;;;;;10255939;28;19927;-81
2023/12/18 18:48:00;;;;;;;;;;;;;;;;;;10282501;28;20444;-80
2023/12/18 18:53:05;;;;;;;;;;;;;;;;;;10270445;28;20112;-79
2023/12/18 18:58:05;;;;;;;;;;;;;;;;;;10298035;28;19922;-81
2023/12/18 19:03:06;;;;;;;;;;;;;;;;;;10270340;28;19918;-86
2023/12/18 19:08:06;;;;;;;;;;;;;;;;;;10286028;28;19941;-81
2023/12/18 19:13:07;;;;;;;;;;;;;;;;;;10325860;28;19922;-83
2023/12/18 19:18:07;;;;;;;;;;;;;;;;;;10289060;28;19922;-85
2023/12/18 19:23:12;;;;;;;;;;;;;;;;;;10302632;28;20331;-80
2023/12/18 19:28:16;;;;;;;;;;;;;;;;;;10307666;28;19950;-83
2023/12/18 19:33:17;;;;;;;;;;;;;;;;;;10286706;28;20034;-81
2023/12/18 19:38:20;;;;;;;;;;;;;;;;;;10282263;28;19918;-86
2023/12/18 19:48:34;;;;;;;;;;;;;;;;;;10304769;28;20355;-81
2023/12/18 19:53:40;;;;;;;;;;;;;;;;;;10302840;28;19989;-82
2023/12/18 19:58:40;;;;;;;;;;;;;;;;;;10261764;28;20001;-81
2023/12/18 20:03:40;;;;;;;;;;;;;;;;;;10262090;28;19923;-82
2023/12/18 20:08:40;;;;;;;;;;;;;;;;;;10263891;28;20380;-83
2023/12/18 20:13:41;;;;;;;;;;;;;;;;;;10245863;28;19945;-85
2023/12/18 20:18:42;;;;;;;;;;;;;;;;;;10268126;28;20021;-85
2023/12/18 20:23:42;;;;;;;;;;;;;;;;;;10264056;28;19973;-89
2023/12/18 20:28:43;;;;;;;;;;;;;;;;;;10274784;28;19933;-86
2023/12/18 20:33:43;;;;;;;;;;;;;;;;;;10374569;28;19918;-84
2023/12/18 20:38:45;;;;;;;;;;;;;;;;;;10345958;28;19926;-88
2023/12/18 20:43:45;;;;;;;;;;;;;;;;;;10338881;28;19938;-88
2023/12/18 20:48:51;;;;;;;;;;;;;;;;;;10323402;28;19993;-90
2023/12/18 20:54:09;;;;;;;;;;;;;;;;;;10715352;23;19921;-89
2023/12/18 20:59:10;;;;;;;;;;;;;;;;;;10377127;28;19906;-90
2023/12/18 21:04:13;;;;;;;;;;;;;;;;;;10391803;28;19921;-83
2023/12/18 21:09:15;;;;;;;;;;;;;;;;;;10398265;28;19917;-83
2023/12/18 21:14:15;;;;;;;;;;;;;;;;;;10362100;28;19993;-82
2023/12/18 21:19:15;;;;;;;;;;;;;;;;;;10366515;23;19934;-85
2023/12/18 21:24:17;;;;;;;;;;;;;;;;;;10329685;28;19932;-85
2023/12/18 21:29:17;;;;;;;;;;;;;;;;;;10317153;28;19917;-87
2023/12/18 21:34:21;;;;;;;;;;;;;;;;;;10370789;28;19929;-86
2023/12/18 21:39:22;;;;;;;;;;;;;;;;;;10342928;28;20005;-89
2023/12/18 21:44:22;;;;;;;;;;;;;;;;;;10334930;28;19921;-86
2023/12/18 21:49:24;;;;;;;;;;;;;;;;;;10371505;28;19929;-88
2023/12/18 21:54:25;;;;;;;;;;;;;;;;;;10302487;28;19926;-86
2023/12/18 21:59:28;;;;;;;;;;;;;;;;;;10300320;28;19949;-86
2023/12/18 22:04:28;;;;;;;;;;;;;;;;;;10328014;28;20011;-84
2023/12/18 22:09:46;;;;;;;;;;;;;;;;;;10346628;28;19944;-84
2023/12/18 22:14:46;;;;;;;;;;;;;;;;;;10334001;28;19917;-85
2023/12/18 22:19:47;;;;;;;;;;;;;;;;;;10325580;28;19962;-87
2023/12/18 22:24:49;;;;;;;;;;;;;;;;;;10321522;28;19929;-86
2023/12/18 22:29:49;;;;;;;;;;;;;;;;;;10277217;28;19930;-87
2023/12/18 22:34:50;;;;;;;;;;;;;;;;;;10321799;28;19921;-88
2023/12/18 22:39:50;;;;;;;;;;;;;;;;;;10352880;28;19928;-87
2023/12/18 22:44:51;;;;;;;;;;;;;;;;;;10291649;28;20381;-84
2023/12/18 22:49:51;;;;;;;;;;;;;;;;;;10285482;28;19922;-82
2023/12/18 22:54:53;;;;;;;;;;;;;;;;;;10281978;28;20069;-85
2023/12/18 22:59:56;;;;;;;;;;;;;;;;;;10264858;28;20308;-81
2023/12/18 23:05:07;;;;;;;;;;;;;;;;;;10279736;28;19971;-82
2023/12/18 23:10:07;;;;;;;;;;;;;;;;;;10273032;28;19922;-82
2023/12/18 23:15:07;;;;;;;;;;;;;;;;;;10234068;28;20001;-82
2023/12/18 23:20:09;;;;;;;;;;;;;;;;;;10292146;28;19926;-86
2023/12/18 23:25:10;;;;;;;;;;;;;;;;;;10292548;28;19910;-90
2023/12/18 23:30:12;;;;;;;;;;;;;;;;;;10304052;28;19922;-87
2023/12/18 23:35:16;;;;;;;;;;;;;;;;;;10294041;28;19922;-87
2023/12/18 23:40:17;;;;;;;;;;;;;;;;;;10231399;28;19922;-85
2023/12/18 23:45:23;;;;;;;;;;;;;;;;;;10245306;28;20481;-86
2023/12/18 23:50:25;;;;;;;;;;;;;;;;;;10239063;28;19930;-85
2023/12/18 23:55:26;;;;;;;;;;;;;;;;;;10259571;28;19988;-88
